sensor_id;sensor_type;location;lat;lon;timestamp;pressure;altitude;pressure_sealevel;temperature;humidity
43125;BME280;49182;50.788;7.318;2023-04-04T00:00:58;102132.47;;;-1.07;77.79
43125;BME280;49182;50.788;7.318;2023-04-04T00:03:25;102126.53;;;-1.14;78.11
43125;BME280;49182;50.788;7.318;2023-04-04T00:05:52;102133.50;;;-1.17;78.41
43125;BME280;49182;50.788;7.318;2023-04-04T00:08:19;102140.44;;;-1.23;78.15
43125;BME280;49182;50.788;7.318;2023-04-04T00:10:47;102137.91;;;-1.24;78.22
43125;BME280;49182;50.788;7.318;2023-04-04T00:13:13;102137.91;;;-1.26;78.31
43125;BME280;49182;50.788;7.318;2023-04-04T00:15:40;102134.41;;;-1.22;78.62
43125;BME280;49182;50.788;7.318;2023-04-04T00:18:07;102142.09;;;-1.15;79.32
43125;BME280;49182;50.788;7.318;2023-04-04T00:20:33;102123.34;;;-1.33;78.73
43125;BME280;49182;50.788;7.318;2023-04-04T00:23:00;102139.75;;;-1.32;79.30
43125;BME280;49182;50.788;7.318;2023-04-04T00:25:27;102142.31;;;-1.31;79.00
43125;BME280;49182;50.788;7.318;2023-04-04T00:27:54;102142.25;;;-1.26;79.44
43125;BME280;49182;50.788;7.318;2023-04-04T00:30:21;102138.88;;;-1.33;79.68
43125;BME280;49182;50.788;7.318;2023-04-04T00:32:48;102141.53;;;-1.37;79.75
43125;BME280;49182;50.788;7.318;2023-04-04T00:35:14;102138.84;;;-1.30;80.12
43125;BME280;49182;50.788;7.318;2023-04-04T00:37:41;102105.47;;;-1.51;80.52
43125;BME280;49182;50.788;7.318;2023-04-04T00:40:08;102143.19;;;-1.30;81.10
43125;BME280;49182;50.788;7.318;2023-04-04T00:42:35;102143.13;;;-1.29;80.61
43125;BME280;49182;50.788;7.318;2023-04-04T00:45:04;102144.91;;;-1.31;80.61
43125;BME280;49182;50.788;7.318;2023-04-04T00:47:32;102144.91;;;-1.31;80.51
43125;BME280;49182;50.788;7.318;2023-04-04T00:49:59;102146.75;;;-1.42;81.08
43125;BME280;49182;50.788;7.318;2023-04-04T00:52:27;102139.97;;;-1.49;81.12
43125;BME280;49182;50.788;7.318;2023-04-04T00:54:54;102140.88;;;-1.51;81.31
43125;BME280;49182;50.788;7.318;2023-04-04T00:57:22;102145.19;;;-1.50;81.56
43125;BME280;49182;50.788;7.318;2023-04-04T00:59:50;102141.81;;;-1.60;81.28
43125;BME280;49182;50.788;7.318;2023-04-04T01:02:18;102151.31;;;-1.57;82.01
43125;BME280;49182;50.788;7.318;2023-04-04T01:04:45;102120.41;;;-1.73;81.91
43125;BME280;49182;50.788;7.318;2023-04-04T01:07:12;102153.03;;;-1.58;81.66
43125;BME280;49182;50.788;7.318;2023-04-04T01:09:38;102151.38;;;-1.62;81.67
43125;BME280;49182;50.788;7.318;2023-04-04T01:12:06;102094.03;;;-2.00;81.70
43125;BME280;49182;50.788;7.318;2023-04-04T01:14:33;102159.22;;;-1.68;82.05
43125;BME280;49182;50.788;7.318;2023-04-04T01:17:00;102152.25;;;-1.66;82.38
43125;BME280;49182;50.788;7.318;2023-04-04T01:19:33;102153.16;;;-1.67;82.10
43125;BME280;49182;50.788;7.318;2023-04-04T01:22:06;102132.56;;;-1.78;82.50
43125;BME280;49182;50.788;7.318;2023-04-04T01:24:34;102141.16;;;-1.74;82.34
43125;BME280;49182;50.788;7.318;2023-04-04T01:27:05;102132.69;;;-1.85;82.92
43125;BME280;49182;50.788;7.318;2023-04-04T01:29:37;102152.41;;;-1.77;83.08
43125;BME280;49182;50.788;7.318;2023-04-04T01:32:07;102142.97;;;-1.81;82.83
43125;BME280;49182;50.788;7.318;2023-04-04T01:34:43;102152.41;;;-1.75;82.89
43125;BME280;49182;50.788;7.318;2023-04-04T01:37:18;102146.38;;;-1.77;83.35
43125;BME280;49182;50.788;7.318;2023-04-04T01:39:48;102141.41;;;-1.92;83.27
43125;BME280;49182;50.788;7.318;2023-04-04T01:42:21;102147.31;;;-1.84;83.12
43125;BME280;49182;50.788;7.318;2023-04-04T01:44:53;102142.13;;;-1.83;83.86
43125;BME280;49182;50.788;7.318;2023-04-04T01:47:21;102143.06;;;-1.88;83.43
43125;BME280;49182;50.788;7.318;2023-04-04T01:49:48;102126.88;;;-2.04;83.94
43125;BME280;49182;50.788;7.318;2023-04-04T01:52:15;102138.81;;;-1.95;84.08
43125;BME280;49182;50.788;7.318;2023-04-04T01:54:41;102134.56;;;-1.99;84.39
43125;BME280;49182;50.788;7.318;2023-04-04T01:57:08;102136.25;;;-1.95;84.57
43125;BME280;49182;50.788;7.318;2023-04-04T01:59:36;102128.53;;;-1.98;84.54
43125;BME280;49182;50.788;7.318;2023-04-04T02:02:03;102129.38;;;-1.98;84.24
43125;BME280;49182;50.788;7.318;2023-04-04T02:04:29;102130.25;;;-2.00;84.35
43125;BME280;49182;50.788;7.318;2023-04-04T02:06:56;102137.19;;;-2.03;84.09
43125;BME280;49182;50.788;7.318;2023-04-04T02:09:23;102131.19;;;-2.08;84.51
43125;BME280;49182;50.788;7.318;2023-04-04T02:11:50;102142.41;;;-2.06;84.27
43125;BME280;49182;50.788;7.318;2023-04-04T02:14:17;102144.19;;;-2.11;84.43
43125;BME280;49182;50.788;7.318;2023-04-04T02:16:45;102137.25;;;-2.09;84.80
43125;BME280;49182;50.788;7.318;2023-04-04T02:19:12;102141.56;;;-2.09;84.20
43125;BME280;49182;50.788;7.318;2023-04-04T02:21:38;102138.16;;;-2.14;84.63
43125;BME280;49182;50.788;7.318;2023-04-04T02:24:06;102138.94;;;-2.05;84.47
43125;BME280;49182;50.788;7.318;2023-04-04T02:26:33;102145.78;;;-2.02;83.80
43125;BME280;49182;50.788;7.318;2023-04-04T02:28:59;102135.44;;;-2.00;83.71
43125;BME280;49182;50.788;7.318;2023-04-04T02:31:26;102090.94;;;-2.30;83.90
43125;BME280;49182;50.788;7.318;2023-04-04T02:33:54;102124.31;;;-2.09;84.69
43125;BME280;49182;50.788;7.318;2023-04-04T02:36:21;102125.28;;;-2.19;85.01
43125;BME280;49182;50.788;7.318;2023-04-04T02:38:50;102133.06;;;-2.20;84.85
43125;BME280;49182;50.788;7.318;2023-04-04T02:41:18;102124.50;;;-2.27;84.99
43125;BME280;49182;50.788;7.318;2023-04-04T02:43:45;102118.41;;;-2.20;85.21
43125;BME280;49182;50.788;7.318;2023-04-04T02:46:11;102121.00;;;-2.21;85.13
43125;BME280;49182;50.788;7.318;2023-04-04T02:48:55;102118.47;;;-2.24;85.17
43125;BME280;49182;50.788;7.318;2023-04-04T02:51:21;102121.91;;;-2.24;85.53
43125;BME280;49182;50.788;7.318;2023-04-04T02:53:48;102096.25;;;-2.42;85.56
43125;BME280;49182;50.788;7.318;2023-04-04T02:56:37;102118.56;;;-2.35;85.00
43125;BME280;49182;50.788;7.318;2023-04-04T02:59:04;102117.75;;;-2.38;85.08
43125;BME280;49182;50.788;7.318;2023-04-04T03:01:31;102094.59;;;-2.52;85.26
43125;BME280;49182;50.788;7.318;2023-04-04T03:04:02;102104.84;;;-2.43;85.64
43125;BME280;49182;50.788;7.318;2023-04-04T03:06:30;102097.97;;;-2.44;85.60
43125;BME280;49182;50.788;7.318;2023-04-04T03:08:57;102080.88;;;-2.59;85.89
43125;BME280;49182;50.788;7.318;2023-04-04T03:11:25;102096.25;;;-2.42;85.83
43125;BME280;49182;50.788;7.318;2023-04-04T03:13:53;102064.56;;;-2.65;86.02
43125;BME280;49182;50.788;7.318;2023-04-04T03:16:27;102102.34;;;-2.48;86.51
43125;BME280;49182;50.788;7.318;2023-04-04T03:18:55;102097.16;;;-2.51;86.48
43125;BME280;49182;50.788;7.318;2023-04-04T03:21:23;102094.59;;;-2.52;86.49
43125;BME280;49182;50.788;7.318;2023-04-04T03:23:50;102092.06;;;-2.58;85.74
43125;BME280;49182;50.788;7.318;2023-04-04T03:26:17;102109.34;;;-2.60;85.75
43125;BME280;49182;50.788;7.318;2023-04-04T03:28:44;102103.31;;;-2.64;85.43
43125;BME280;49182;50.788;7.318;2023-04-04T03:31:12;102106.75;;;-2.62;85.47
43125;BME280;49182;50.788;7.318;2023-04-04T03:33:41;102104.19;;;-2.62;84.95
43125;BME280;49182;50.788;7.318;2023-04-04T03:36:10;102109.34;;;-2.60;85.24
43125;BME280;49182;50.788;7.318;2023-04-04T03:38:39;102109.34;;;-2.60;85.22
43125;BME280;49182;50.788;7.318;2023-04-04T03:41:08;102083.69;;;-2.81;85.90
43125;BME280;49182;50.788;7.318;2023-04-04T03:43:35;102101.72;;;-2.75;86.46
43125;BME280;49182;50.788;7.318;2023-04-04T03:46:01;102098.22;;;-2.71;86.46
43125;BME280;49182;50.788;7.318;2023-04-04T03:48:28;102084.53;;;-2.81;86.41
43125;BME280;49182;50.788;7.318;2023-04-04T03:50:55;102093.16;;;-2.80;86.74
43125;BME280;49182;50.788;7.318;2023-04-04T03:53:22;102097.47;;;-2.79;87.16
43125;BME280;49182;50.788;7.318;2023-04-04T03:55:51;102095.69;;;-2.77;87.10
43125;BME280;49182;50.788;7.318;2023-04-04T03:58:18;102098.31;;;-2.80;87.25
43125;BME280;49182;50.788;7.318;2023-04-04T04:00:45;102097.50;;;-2.84;87.41
43125;BME280;49182;50.788;7.318;2023-04-04T04:03:12;102089.81;;;-2.93;87.28
43125;BME280;49182;50.788;7.318;2023-04-04T04:05:42;102092.44;;;-2.98;87.50
43125;BME280;49182;50.788;7.318;2023-04-04T04:08:08;102088.03;;;-2.90;87.16
43125;BME280;49182;50.788;7.318;2023-04-04T04:10:37;102104.41;;;-2.86;87.56
43125;BME280;49182;50.788;7.318;2023-04-04T04:13:05;102103.50;;;-2.82;87.38
43125;BME280;49182;50.788;7.318;2023-04-04T04:15:33;102087.22;;;-2.92;87.42
43125;BME280;49182;50.788;7.318;2023-04-04T04:18:02;102099.22;;;-2.86;87.51
43125;BME280;49182;50.788;7.318;2023-04-04T04:20:29;102095.78;;;-2.85;87.43
43125;BME280;49182;50.788;7.318;2023-04-04T04:22:56;102096.59;;;-2.81;87.59
43125;BME280;49182;50.788;7.318;2023-04-04T04:25:22;102100.09;;;-2.89;88.05
43125;BME280;49182;50.788;7.318;2023-04-04T04:28:09;102082.13;;;-2.98;88.17
43125;BME280;49182;50.788;7.318;2023-04-04T04:30:36;102066.66;;;-3.07;88.00
43125;BME280;49182;50.788;7.318;2023-04-04T04:33:04;102072.66;;;-2.99;88.17
43125;BME280;49182;50.788;7.318;2023-04-04T04:35:38;102078.56;;;-2.88;87.97
43125;BME280;49182;50.788;7.318;2023-04-04T04:38:04;102083.72;;;-2.88;88.10
43125;BME280;49182;50.788;7.318;2023-04-04T04:40:31;102076.91;;;-2.92;87.85
43125;BME280;49182;50.788;7.318;2023-04-04T04:43:04;102081.22;;;-2.94;87.99
43125;BME280;49182;50.788;7.318;2023-04-04T04:45:32;102078.72;;;-3.03;88.62
43125;BME280;49182;50.788;7.318;2023-04-04T04:48:05;102076.19;;;-3.09;88.28
43125;BME280;49182;50.788;7.318;2023-04-04T04:50:39;102066.72;;;-3.14;88.09
43125;BME280;49182;50.788;7.318;2023-04-04T04:53:08;102069.34;;;-3.19;87.71
43125;BME280;49182;50.788;7.318;2023-04-04T04:55:34;102073.69;;;-3.21;87.92
43125;BME280;49182;50.788;7.318;2023-04-04T04:58:05;102079.72;;;-3.22;88.21
43125;BME280;49182;50.788;7.318;2023-04-04T05:00:34;102078.84;;;-3.21;88.28
43125;BME280;49182;50.788;7.318;2023-04-04T05:03:00;102074.56;;;-3.27;88.05
43125;BME280;49182;50.788;7.318;2023-04-04T05:05:36;102081.44;;;-3.21;87.68
43125;BME280;49182;50.788;7.318;2023-04-04T05:08:07;102075.47;;;-3.29;87.65
43125;BME280;49182;50.788;7.318;2023-04-04T05:10:38;102086.63;;;-3.26;87.50
43125;BME280;49182;50.788;7.318;2023-04-04T05:13:06;102085.75;;;-3.24;87.24
43125;BME280;49182;50.788;7.318;2023-04-04T05:15:41;102090.91;;;-3.21;86.52
43125;BME280;49182;50.788;7.318;2023-04-04T05:18:08;102054.06;;;-3.46;86.59
43125;BME280;49182;50.788;7.318;2023-04-04T05:20:35;102089.19;;;-3.26;86.32
43125;BME280;49182;50.788;7.318;2023-04-04T05:23:03;102078.91;;;-3.33;86.66
43125;BME280;49182;50.788;7.318;2023-04-04T05:25:35;102087.50;;;-3.28;86.92
43125;BME280;49182;50.788;7.318;2023-04-04T05:28:02;102081.50;;;-3.29;87.11
43125;BME280;49182;50.788;7.318;2023-04-04T05:30:30;102092.69;;;-3.31;87.55
43125;BME280;49182;50.788;7.318;2023-04-04T05:33:10;102066.94;;;-3.42;87.85
43125;BME280;49182;50.788;7.318;2023-04-04T05:35:39;102092.69;;;-3.30;88.15
43125;BME280;49182;50.788;7.318;2023-04-04T05:38:06;102090.06;;;-3.22;87.85
43125;BME280;49182;50.788;7.318;2023-04-04T05:40:34;102088.28;;;-3.18;88.61
43125;BME280;49182;50.788;7.318;2023-04-04T05:43:06;102095.19;;;-3.17;88.79
43125;BME280;49182;50.788;7.318;2023-04-04T05:45:43;102078.91;;;-3.29;88.98
43125;BME280;49182;50.788;7.318;2023-04-04T05:48:11;102098.53;;;-3.08;88.91
43125;BME280;49182;50.788;7.318;2023-04-04T05:50:47;102095.94;;;-3.06;88.77
43125;BME280;49182;50.788;7.318;2023-04-04T05:53:16;102099.38;;;-3.03;88.82
43125;BME280;49182;50.788;7.318;2023-04-04T05:55:49;102091.63;;;-3.04;89.07
43125;BME280;49182;50.788;7.318;2023-04-04T05:58:17;102105.28;;;-2.89;88.81
43125;BME280;49182;50.788;7.318;2023-04-04T06:00:52;102109.53;;;-2.81;88.71
43125;BME280;49182;50.788;7.318;2023-04-04T06:03:20;102115.50;;;-2.75;88.91
43125;BME280;49182;50.788;7.318;2023-04-04T06:05:49;102111.09;;;-2.65;88.14
43125;BME280;49182;50.788;7.318;2023-04-04T06:08:16;102119.63;;;-2.57;87.92
43125;BME280;49182;50.788;7.318;2023-04-04T06:10:43;102108.34;;;-2.47;87.54
43125;BME280;49182;50.788;7.318;2023-04-04T06:13:11;102116.06;;;-2.44;87.52
43125;BME280;49182;50.788;7.318;2023-04-04T06:15:39;102112.56;;;-2.37;87.81
43125;BME280;49182;50.788;7.318;2023-04-04T06:18:06;102115.03;;;-2.28;87.26
43125;BME280;49182;50.788;7.318;2023-04-04T06:20:34;102126.16;;;-2.17;87.06
43125;BME280;49182;50.788;7.318;2023-04-04T06:23:01;102122.59;;;-2.10;86.31
43125;BME280;49182;50.788;7.318;2023-04-04T06:25:28;102126.81;;;-1.99;86.14
43125;BME280;49182;50.788;7.318;2023-04-04T06:27:57;102131.00;;;-1.91;86.09
43125;BME280;49182;50.788;7.318;2023-04-04T06:30:23;102114.66;;;-1.93;85.93
43125;BME280;49182;50.788;7.318;2023-04-04T06:32:51;102109.31;;;-1.79;86.49
43125;BME280;49182;50.788;7.318;2023-04-04T06:35:20;102127.16;;;-1.59;85.95
43125;BME280;49182;50.788;7.318;2023-04-04T06:37:57;102130.41;;;-1.45;85.81
43125;BME280;49182;50.788;7.318;2023-04-04T06:40:25;102126.88;;;-1.37;85.57
43125;BME280;49182;50.788;7.318;2023-04-04T06:42:52;102124.97;;;-1.24;84.59
43125;BME280;49182;50.788;7.318;2023-04-04T06:45:21;102125.69;;;-1.16;84.18
43125;BME280;49182;50.788;7.318;2023-04-04T06:47:49;102110.19;;;-1.17;83.79
43125;BME280;49182;50.788;7.318;2023-04-04T06:50:16;102106.56;;;-1.07;83.19
43125;BME280;49182;50.788;7.318;2023-04-04T06:52:45;102113.09;;;-0.85;81.59
43125;BME280;49182;50.788;7.318;2023-04-04T06:55:14;102113.81;;;-0.75;81.12
43125;BME280;49182;50.788;7.318;2023-04-04T06:57:41;102126.63;;;-0.68;80.81
43125;BME280;49182;50.788;7.318;2023-04-04T07:00:08;102127.25;;;-0.54;80.54
43125;BME280;49182;50.788;7.318;2023-04-04T07:02:35;102123.75;;;-0.50;79.99
43125;BME280;49182;50.788;7.318;2023-04-04T07:05:02;102127.75;;;-0.33;79.39
43125;BME280;49182;50.788;7.318;2023-04-04T07:07:28;102130.16;;;-0.24;78.49
43125;BME280;49182;50.788;7.318;2023-04-04T07:09:55;102129.13;;;-0.14;77.77
43125;BME280;49182;50.788;7.318;2023-04-04T07:12:23;102136.72;;;-0.05;77.82
43125;BME280;49182;50.788;7.318;2023-04-04T07:14:50;102140.75;;;0.11;77.82
43125;BME280;49182;50.788;7.318;2023-04-04T07:17:17;102143.75;;;0.33;76.61
43125;BME280;49182;50.788;7.318;2023-04-04T07:19:51;102143.34;;;0.53;77.02
43125;BME280;49182;50.788;7.318;2023-04-04T07:22:17;102137.72;;;0.72;75.31
43125;BME280;49182;50.788;7.318;2023-04-04T07:24:44;102144.22;;;0.92;74.87
43125;BME280;49182;50.788;7.318;2023-04-04T07:27:10;102150.72;;;1.09;73.46
43125;BME280;49182;50.788;7.318;2023-04-04T07:29:38;102145.13;;;1.25;73.27
43125;BME280;49182;50.788;7.318;2023-04-04T07:32:05;102135.13;;;1.43;72.24
43125;BME280;49182;50.788;7.318;2023-04-04T07:34:32;102135.53;;;1.62;72.71
43125;BME280;49182;50.788;7.318;2023-04-04T07:36:59;102124.94;;;1.68;71.83
43125;BME280;49182;50.788;7.318;2023-04-04T07:39:25;102133.06;;;1.90;71.51
43125;BME280;49182;50.788;7.318;2023-04-04T07:41:52;102136.09;;;2.04;70.58
43125;BME280;49182;50.788;7.318;2023-04-04T07:44:18;102136.34;;;2.27;66.87
43125;BME280;49182;50.788;7.318;2023-04-04T07:46:46;102134.41;;;2.34;67.92
43125;BME280;49182;50.788;7.318;2023-04-04T07:49:28;102126.09;;;2.51;66.00
43125;BME280;49182;50.788;7.318;2023-04-04T07:51:55;102119.84;;;2.56;65.50
43125;BME280;49182;50.788;7.318;2023-04-04T07:54:21;102133.25;;;2.72;65.06
43125;BME280;49182;50.788;7.318;2023-04-04T07:56:48;102118.06;;;2.84;62.53
43125;BME280;49182;50.788;7.318;2023-04-04T07:59:14;102125.88;;;3.12;59.83
43125;BME280;49182;50.788;7.318;2023-04-04T08:01:41;102122.19;;;3.19;60.20
43125;BME280;49182;50.788;7.318;2023-04-04T08:04:12;102123.53;;;3.31;60.93
43125;BME280;49182;50.788;7.318;2023-04-04T08:06:39;102111.88;;;3.41;60.13
43125;BME280;49182;50.788;7.318;2023-04-04T08:09:06;102112.34;;;3.52;60.32
43125;BME280;49182;50.788;7.318;2023-04-04T08:11:32;102110.13;;;3.66;60.30
43125;BME280;49182;50.788;7.318;2023-04-04T08:13:59;102107.13;;;3.77;59.64
43125;BME280;49182;50.788;7.318;2023-04-04T08:16:26;102109.16;;;3.94;56.78
43125;BME280;49182;50.788;7.318;2023-04-04T08:18:53;102108.75;;;4.04;54.45
43125;BME280;49182;50.788;7.318;2023-04-04T08:21:21;102107.22;;;3.99;54.99
43125;BME280;49182;50.788;7.318;2023-04-04T08:23:47;102103.34;;;4.09;55.47
43125;BME280;49182;50.788;7.318;2023-04-04T08:26:14;102103.53;;;4.28;53.67
43125;BME280;49182;50.788;7.318;2023-04-04T08:28:40;102105.97;;;4.32;51.53
43125;BME280;49182;50.788;7.318;2023-04-04T08:31:07;102101.50;;;4.36;52.13
43125;BME280;49182;50.788;7.318;2023-04-04T08:33:34;102106.31;;;4.46;51.38
43125;BME280;49182;50.788;7.318;2023-04-04T08:36:13;102108.44;;;4.59;51.71
43125;BME280;49182;50.788;7.318;2023-04-04T08:38:42;102111.00;;;4.60;52.35
43125;BME280;49182;50.788;7.318;2023-04-04T08:41:10;102101.25;;;4.64;51.50
43125;BME280;49182;50.788;7.318;2023-04-04T08:43:38;102099.63;;;4.83;49.98
43125;BME280;49182;50.788;7.318;2023-04-04T08:46:04;102098.47;;;4.90;50.46
43125;BME280;49182;50.788;7.318;2023-04-04T08:48:36;102087.09;;;4.91;50.16
43125;BME280;49182;50.788;7.318;2023-04-04T08:51:04;102082.72;;;4.92;49.58
43125;BME280;49182;50.788;7.318;2023-04-04T08:53:32;102087.66;;;4.99;49.65
43125;BME280;49182;50.788;7.318;2023-04-04T08:56:02;102088.06;;;5.10;48.77
43125;BME280;49182;50.788;7.318;2023-04-04T08:58:29;102090.63;;;5.12;49.36
43125;BME280;49182;50.788;7.318;2023-04-04T09:00:56;102070.44;;;5.14;46.86
43125;BME280;49182;50.788;7.318;2023-04-04T09:03:24;102079.22;;;5.13;46.91
43125;BME280;49182;50.788;7.318;2023-04-04T09:05:52;102084.44;;;5.13;46.89
43125;BME280;49182;50.788;7.318;2023-04-04T09:08:19;102071.25;;;5.16;48.06
43125;BME280;49182;50.788;7.318;2023-04-04T09:10:46;102058.34;;;5.11;47.66
43125;BME280;49182;50.788;7.318;2023-04-04T09:13:16;102061.16;;;5.27;48.11
43125;BME280;49182;50.788;7.318;2023-04-04T09:15:45;102069.94;;;5.46;48.33
43125;BME280;49182;50.788;7.318;2023-04-04T09:18:13;102067.50;;;5.62;48.00
43125;BME280;49182;50.788;7.318;2023-04-04T09:20:40;102060.38;;;5.65;47.01
43125;BME280;49182;50.788;7.318;2023-04-04T09:23:09;102047.97;;;5.69;46.42
43125;BME280;49182;50.788;7.318;2023-04-04T09:25:37;102065.00;;;5.79;46.78
43125;BME280;49182;50.788;7.318;2023-04-04T09:28:04;102057.56;;;5.90;46.89
43125;BME280;49182;50.788;7.318;2023-04-04T09:30:33;102057.97;;;6.00;46.66
43125;BME280;49182;50.788;7.318;2023-04-04T09:33:01;102062.59;;;6.14;45.38
43125;BME280;49182;50.788;7.318;2023-04-04T09:35:31;102066.00;;;6.16;45.36
43125;BME280;49182;50.788;7.318;2023-04-04T09:37:58;102068.34;;;6.22;45.74
43125;BME280;49182;50.788;7.318;2023-04-04T09:40:25;102059.56;;;6.23;47.18
43125;BME280;49182;50.788;7.318;2023-04-04T09:42:53;102065.84;;;6.37;44.12
43125;BME280;49182;50.788;7.318;2023-04-04T09:45:22;102069.31;;;6.38;45.56
43125;BME280;49182;50.788;7.318;2023-04-04T09:47:59;102061.91;;;6.47;45.56
43125;BME280;49182;50.788;7.318;2023-04-04T09:50:26;102061.16;;;6.63;45.10
43125;BME280;49182;50.788;7.318;2023-04-04T09:52:55;102064.88;;;6.76;46.38
43125;BME280;49182;50.788;7.318;2023-04-04T09:55:30;102061.03;;;6.83;45.66
43125;BME280;49182;50.788;7.318;2023-04-04T09:57:57;102058.97;;;6.89;45.53
43125;BME280;49182;50.788;7.318;2023-04-04T10:00:27;102061.44;;;6.93;44.01
43125;BME280;49182;50.788;7.318;2023-04-04T10:02:54;102062.22;;;6.95;43.40
43125;BME280;49182;50.788;7.318;2023-04-04T10:05:23;102059.28;;;7.01;42.35
43125;BME280;49182;50.788;7.318;2023-04-04T10:07:50;102056.03;;;6.96;43.07
43125;BME280;49182;50.788;7.318;2023-04-04T10:10:18;102058.75;;;6.94;43.51
43125;BME280;49182;50.788;7.318;2023-04-04T10:12:45;102050.63;;;6.99;42.83
43125;BME280;49182;50.788;7.318;2023-04-04T10:15:14;102049.47;;;7.04;43.74
43125;BME280;49182;50.788;7.318;2023-04-04T10:17:41;102035.47;;;7.04;43.36
43125;BME280;49182;50.788;7.318;2023-04-04T10:20:09;102015.56;;;7.00;42.80
43125;BME280;49182;50.788;7.318;2023-04-04T10:22:37;102045.47;;;7.31;42.33
43125;BME280;49182;50.788;7.318;2023-04-04T10:25:05;102044.31;;;7.37;41.31
43125;BME280;49182;50.788;7.318;2023-04-04T10:27:32;102041.44;;;7.42;41.86
43125;BME280;49182;50.788;7.318;2023-04-04T10:29:59;102030.53;;;7.49;40.27
43125;BME280;49182;50.788;7.318;2023-04-04T10:32:32;102031.91;;;7.56;40.83
43125;BME280;49182;50.788;7.318;2023-04-04T10:35:06;102033.22;;;7.65;39.21
43125;BME280;49182;50.788;7.318;2023-04-04T10:37:35;102013.97;;;7.47;39.27
43125;BME280;49182;50.788;7.318;2023-04-04T10:40:08;102024.22;;;7.69;38.75
43125;BME280;49182;50.788;7.318;2023-04-04T10:42:37;102016.28;;;7.70;39.30
43125;BME280;49182;50.788;7.318;2023-04-04T10:45:05;102007.88;;;7.64;39.67
43125;BME280;49182;50.788;7.318;2023-04-04T10:47:46;102009.91;;;7.75;37.84
43125;BME280;49182;50.788;7.318;2023-04-04T10:50:13;102002.88;;;7.75;39.12
43125;BME280;49182;50.788;7.318;2023-04-04T10:52:41;102004.25;;;7.82;38.29
43125;BME280;49182;50.788;7.318;2023-04-04T10:55:11;102004.31;;;7.81;36.86
43125;BME280;49182;50.788;7.318;2023-04-04T10:57:41;101986.56;;;7.68;37.44
43125;BME280;49182;50.788;7.318;2023-04-04T11:00:10;101999.31;;;7.76;37.82
43125;BME280;49182;50.788;7.318;2023-04-04T11:02:47;102001.78;;;7.79;37.35
43125;BME280;49182;50.788;7.318;2023-04-04T11:05:17;102000.09;;;7.94;38.25
43125;BME280;49182;50.788;7.318;2023-04-04T11:07:45;101993.47;;;8.02;37.48
43125;BME280;49182;50.788;7.318;2023-04-04T11:10:34;101989.50;;;8.11;37.21
43125;BME280;49182;50.788;7.318;2023-04-04T11:13:01;101992.03;;;8.28;37.99
43125;BME280;49182;50.788;7.318;2023-04-04T11:15:50;101985.53;;;8.35;37.68
43125;BME280;49182;50.788;7.318;2023-04-04T11:18:18;101976.38;;;8.42;37.27
43125;BME280;49182;50.788;7.318;2023-04-04T11:21:00;101971.34;;;8.53;38.48
43125;BME280;49182;50.788;7.318;2023-04-04T11:23:38;101968.94;;;8.65;37.70
43125;BME280;49182;50.788;7.318;2023-04-04T11:26:35;101964.84;;;8.75;35.90
43125;BME280;49182;50.788;7.318;2023-04-04T11:29:02;101970.03;;;8.76;34.63
43125;BME280;49182;50.788;7.318;2023-04-04T11:31:32;101961.16;;;8.77;35.71
43125;BME280;49182;50.788;7.318;2023-04-04T11:34:04;101963.34;;;8.85;37.03
43125;BME280;49182;50.788;7.318;2023-04-04T11:36:50;101956.78;;;8.92;34.32
43125;BME280;49182;50.788;7.318;2023-04-04T11:39:23;101961.69;;;8.98;36.64
43125;BME280;49182;50.788;7.318;2023-04-04T11:41:53;101953.78;;;8.98;34.57
43125;BME280;49182;50.788;7.318;2023-04-04T11:44:21;101952.00;;;8.99;35.17
43125;BME280;49182;50.788;7.318;2023-04-04T11:46:54;101950.44;;;9.10;36.42
43125;BME280;49182;50.788;7.318;2023-04-04T11:49:24;101943.56;;;9.22;35.46
43125;BME280;49182;50.788;7.318;2023-04-04T11:51:51;101937.00;;;9.29;35.38
43125;BME280;49182;50.788;7.318;2023-04-04T11:54:18;101916.94;;;9.26;35.07
43125;BME280;49182;50.788;7.318;2023-04-04T11:56:44;101936.25;;;9.41;34.91
43125;BME280;49182;50.788;7.318;2023-04-04T11:59:16;101928.59;;;9.51;35.00
43125;BME280;49182;50.788;7.318;2023-04-04T12:01:44;101932.72;;;9.69;35.44
43125;BME280;49182;50.788;7.318;2023-04-04T12:04:11;101931.28;;;9.92;34.30
43125;BME280;49182;50.788;7.318;2023-04-04T12:06:38;101929.75;;;10.02;34.33
43125;BME280;49182;50.788;7.318;2023-04-04T12:09:05;101936.91;;;10.00;33.29
43125;BME280;49182;50.788;7.318;2023-04-04T12:11:33;101916.31;;;9.92;34.68
43125;BME280;49182;50.788;7.318;2023-04-04T12:14:00;101916.47;;;10.18;35.41
43125;BME280;49182;50.788;7.318;2023-04-04T12:16:28;101919.38;;;10.40;34.17
43125;BME280;49182;50.788;7.318;2023-04-04T12:18:56;101893.50;;;10.45;33.66
43125;BME280;49182;50.788;7.318;2023-04-04T12:21:26;101901.16;;;10.62;35.08
43125;BME280;49182;50.788;7.318;2023-04-04T12:23:54;101896.13;;;10.84;33.20
43125;BME280;49182;50.788;7.318;2023-04-04T12:26:21;101889.75;;;10.87;31.99
43125;BME280;49182;50.788;7.318;2023-04-04T12:28:48;101894.00;;;10.77;33.31
43125;BME280;49182;50.788;7.318;2023-04-04T12:31:15;101891.56;;;10.61;32.67
43125;BME280;49182;50.788;7.318;2023-04-04T12:33:43;101898.81;;;10.58;31.54
43125;BME280;49182;50.788;7.318;2023-04-04T12:36:11;101901.44;;;10.45;31.89
43125;BME280;49182;50.788;7.318;2023-04-04T12:38:54;101896.06;;;10.46;32.39
43125;BME280;49182;50.788;7.318;2023-04-04T12:41:20;101890.03;;;10.44;34.45
43125;BME280;49182;50.788;7.318;2023-04-04T12:43:47;101893.66;;;10.69;31.14
43125;BME280;49182;50.788;7.318;2023-04-04T12:46:15;101884.47;;;10.49;31.24
43125;BME280;49182;50.788;7.318;2023-04-04T12:48:43;101890.16;;;10.43;31.76
43125;BME280;49182;50.788;7.318;2023-04-04T12:51:11;101866.38;;;10.43;34.66
43125;BME280;49182;50.788;7.318;2023-04-04T12:53:50;101879.63;;;10.81;34.55
43125;BME280;49182;50.788;7.318;2023-04-04T12:56:18;101878.59;;;11.09;32.21
43125;BME280;49182;50.788;7.318;2023-04-04T12:58:45;101860.59;;;11.14;31.75
43125;BME280;49182;50.788;7.318;2023-04-04T13:01:14;101865.25;;;11.23;32.20